Terminal Aerodrome Forecast
Issued by NWS Boston, MA

Home | Current Version | Previous Version | Text Only | Print | Product List | Glossary On
Versions: 1 2 3 4 5 6 7 8 9 10 11 12 13 14 15 16 17 18 19 20 21 22 23 24 25 26 27 28 29 30 31 32 33 34 35 36 37 38 39 40 41 42 43 44 45 46 47 48 49 50
000
FTUS41 KBOX 191129 CCA
TAFPVD
TAF COR
KPVD 191129Z 1912/2012 19006KT P6SM FEW250
     FM191530 19011G21KT P6SM FEW250
     FM191900 19010G20KT P6SM VCSH BKN025
     FM192300 19009KT P6SM -SHRA BKN015
     FM200100 20007KT 5SM -SHRA BR OVC015 WS020/21035KT
     FM200500 21006KT 3SM BR VCSH OVC008 WS020/22040KT
     FM201100 22006KT 5SM BR OVC008=

USA.gov is the U.S. government's official web portal to all federal, state and local government web resources and services.